Grandy, North Carolina
Current Conditions -  °F | °C
As of 6:55 PM on Saturday 22 Nov 2014 (Local Time) from KONX Reporting Station
Clear Clear  
Wind Chill: 40°   Ceiling: Unl
Heat Index: 40°   Visibility: 10mi
Dew Point: 33°   Wind: 0mph
Humidity: 74%   Direction: NA
Pressure: 30.4"   Gusts: NA
Location:  36.24°N, 75.88°W
Report Text: KONX 222355Z AUTO 00000KT 10SM CLR 05/00 A3040 RMK AO2 T00450003 10114 21034
Loading
Personal Weather Stations






























Interactive Weather Map New forecast layout! Learn more

10-Day Weather Forecast

Advertisements
Track Severe Weather on mobile